Time;durP1;ratioP1;P1;durP2;ratioP2;P2;SDS_P1;SDS_P2;PMS_P1;PMS_P2;Temp;Humidity;BMP_temperature;BMP_pressure;BME280_temperature;BME280_humidity;BME280_pressure;Samples;Min_cycle;Max_cycle;Signal;HPM_P1;HPM_P2
2023/09/08 00:00:48;;;;;;;8.40;3.50;;;;;;;14.64;58.26;101326.60;1647674;87;21039;-68
2023/09/08 00:03:18;;;;;;;7.87;3.27;;;;;;;14.61;58.39;101320.11;1700785;84;21054;-68
2023/09/08 00:05:48;;;;;;;8.35;3.52;;;;;;;14.62;58.48;101325.95;1664552;86;21024;-67
2023/09/08 00:08:17;;;;;;;8.18;3.67;;;;;;;14.58;58.57;101329.64;1628973;87;21064;-67
2023/09/08 00:10:47;;;;;;;8.28;3.20;;;;;;;14.57;58.68;101324.33;1722434;83;21055;-67
2023/09/08 00:13:17;;;;;;;8.60;3.25;;;;;;;14.59;58.73;101334.63;1679329;85;21109;-66
2023/09/08 00:15:46;;;;;;;6.75;3.15;;;;;;;14.58;58.75;101329.64;1728547;83;21023;-67
2023/09/08 00:18:15;;;;;;;7.22;3.33;;;;;;;14.59;58.79;101330.49;1679226;85;21014;-66
2023/09/08 00:20:44;;;;;;;7.00;3.02;;;;;;;14.58;58.88;101338.44;1728985;83;21099;-67
2023/09/08 00:23:13;;;;;;;6.58;3.20;;;;;;;14.57;58.96;101335.36;1679173;84;21053;-67
2023/09/08 00:25:43;;;;;;;6.97;2.85;;;;;;;14.54;59.02;101332.48;1728672;83;21081;-68
2023/09/08 00:28:12;;;;;;;5.87;2.75;;;;;;;14.53;59.11;101332.67;1712258;83;21067;-67
2023/09/08 00:30:43;;;;;;;6.22;2.98;;;;;;;14.53;59.19;101334.05;1679145;84;21048;-67
2023/09/08 00:33:13;;;;;;;8.88;3.05;;;;;;;14.49;59.29;101326.70;1728445;83;21509;-67
2023/09/08 00:35:51;;;;;;;6.58;3.40;;;;;;;14.43;59.51;101328.04;1671535;85;21057;-66
2023/09/08 00:38:21;;;;;;;7.30;3.00;;;;;;;14.41;59.74;101328.73;1728697;83;21411;-67
2023/09/08 00:40:51;;;;;;;8.20;3.30;;;;;;;14.37;59.86;101324.67;1679459;85;21109;-79
2023/09/08 00:43:20;;;;;;;8.08;3.55;;;;;;;14.33;60.00;101319.23;1728605;83;21008;-68
2023/09/08 00:45:49;;;;;;;7.78;3.60;;;;;;;14.29;60.17;101329.25;1694413;84;21061;-66
2023/09/08 00:48:19;;;;;;;7.80;3.55;;;;;;;14.25;60.32;101318.82;1712408;82;21043;-68
2023/09/08 00:50:49;;;;;;;7.85;3.40;;;;;;;14.20;60.46;101323.55;1679130;85;21017;-67
2023/09/08 00:53:18;;;;;;;9.35;3.45;;;;;;;14.17;60.57;101321.19;1728723;83;21000;-67
2023/09/08 00:55:48;;;;;;;7.92;3.40;;;;;;;14.14;60.66;101318.84;1679188;85;21085;-66
2023/09/08 00:58:18;;;;;;;6.58;3.50;;;;;;;14.10;60.80;101317.53;1728563;83;21060;-66
2023/09/08 01:00:48;;;;;;;7.30;3.47;;;;;;;14.07;60.93;101320.68;1712030;83;21020;-67
2023/09/08 01:03:20;;;;;;;8.58;3.50;;;;;;;14.04;61.07;101321.08;1679340;85;21453;-66
2023/09/08 01:05:49;;;;;;;7.60;3.85;;;;;;;14.03;61.25;101323.50;1700205;83;21035;-66
2023/09/08 01:08:19;;;;;;;8.00;3.58;;;;;;;14.01;61.40;101320.09;1679207;84;21022;-67
2023/09/08 01:10:49;;;;;;;7.90;3.55;;;;;;;14.02;61.45;101319.05;1721776;83;21077;-68
2023/09/08 01:13:19;;;;;;;7.20;3.27;;;;;;;14.01;61.42;101323.38;1683589;85;21504;-68
2023/09/08 01:15:50;;;;;;;11.38;3.92;;;;;;;14.02;61.41;101335.58;1678166;85;21031;-66
2023/09/08 01:18:19;;;;;;;6.10;3.30;;;;;;;14.02;61.31;101323.17;1683765;85;21047;-67
2023/09/08 01:21:14;;;;;;;9.73;4.37;;;;;;;14.00;61.28;101323.90;1659139;85;21184;-67
2023/09/08 01:24:34;;;;;;;6.40;3.02;;;;;;;13.96;61.23;101322.59;1683493;84;21491;-68
2023/09/08 01:27:05;;;;;;;9.48;3.90;;;;;;;13.94;61.29;101325.55;1677828;85;21142;-67
2023/09/08 01:29:36;;;;;;;7.85;3.72;;;;;;;13.92;61.33;101324.03;1625125;85;21059;-66
2023/09/08 01:32:06;;;;;;;8.63;3.72;;;;;;;13.89;61.47;101333.55;1678144;85;21111;-69
2023/09/08 01:34:36;;;;;;;8.48;3.80;;;;;;;13.85;61.65;101330.86;1678262;85;21087;-68
2023/09/08 01:37:07;;;;;;;10.98;4.28;;;;;;;13.86;61.75;101330.33;1658623;85;21127;-67
2023/09/08 01:39:37;;;;;;;8.13;3.77;;;;;;;13.86;61.77;101330.33;1678106;85;21087;-66
2023/09/08 01:42:06;;;;;;;8.20;3.90;;;;;;;13.84;61.77;101337.94;1718201;83;21473;-67
2023/09/08 01:44:36;;;;;;;9.45;4.00;;;;;;;13.78;61.80;101333.22;1683712;84;21454;-67
2023/09/08 01:47:05;;;;;;;7.60;4.03;;;;;;;13.76;61.92;101338.07;1678075;85;21538;-66
2023/09/08 01:49:34;;;;;;;9.48;3.75;;;;;;;13.76;61.92;101338.07;1683870;85;21467;-67
2023/09/08 01:52:04;;;;;;;11.25;4.20;;;;;;;13.78;61.95;101344.23;1678120;85;21083;-67
2023/09/08 01:54:33;;;;;;;7.83;3.77;;;;;;;13.77;61.94;101337.88;1718218;83;21022;-68
2023/09/08 01:57:02;;;;;;;6.08;3.70;;;;;;;13.78;61.86;101339.58;1683679;84;21031;-68
2023/09/08 01:59:32;;;;;;;9.98;3.75;;;;;;;13.76;61.92;101331.19;1653131;85;21115;-67
2023/09/08 02:02:01;;;;;;;7.22;3.50;;;;;;;13.72;62.07;101325.73;1664263;85;21099;-66
2023/09/08 02:04:30;;;;;;;9.88;3.95;;;;;;;13.69;62.19;101325.60;1678238;85;21470;-67
2023/09/08 02:07:01;;;;;;;9.33;4.08;;;;;;;13.66;62.35;101325.14;1718361;82;21078;-67
2023/09/08 02:09:56;;;;;;;8.98;4.62;;;;;;;13.64;62.47;101315.14;1683723;85;21052;-67
2023/09/08 02:12:27;;;;;;;9.93;4.60;;;;;;;13.66;62.48;101318.26;1649109;85;21087;-67
2023/09/08 02:14:56;;;;;;;9.08;4.47;;;;;;;13.67;62.50;101315.31;1648711;87;21083;-68
2023/09/08 02:17:25;;;;;;;8.50;4.25;;;;;;;13.62;62.62;101314.48;1648656;87;21491;-67
2023/09/08 02:19:55;;;;;;;8.90;4.03;;;;;;;13.56;62.79;101309.76;1648603;87;21111;-67
2023/09/08 02:22:24;;;;;;;7.83;3.90;;;;;;;13.53;62.96;101307.92;1648622;87;21079;-68
2023/09/08 02:24:56;;;;;;;9.33;3.72;;;;;;;13.53;63.00;101314.80;1622758;87;21035;-67
2023/09/08 02:27:26;;;;;;;8.88;3.62;;;;;;;13.55;62.95;101315.46;1623397;87;21087;-66
2023/09/08 02:29:55;;;;;;;8.55;3.95;;;;;;;13.57;62.89;101310.61;1648650;87;21062;-67
2023/09/08 02:32:24;;;;;;;8.15;3.87;;;;;;;13.59;62.84;101314.02;1648669;86;21008;-69
2023/09/08 02:34:54;;;;;;;8.35;3.77;;;;;;;13.59;62.84;101312.13;1648671;86;21035;-67
2023/09/08 02:37:22;;;;;;;7.50;3.52;;;;;;;13.57;62.87;101305.11;1648656;87;21471;-66
2023/09/08 02:39:52;;;;;;;8.05;3.70;;;;;;;13.53;63.02;101306.55;1648805;87;21083;-67
2023/09/08 02:42:23;;;;;;;8.68;4.10;;;;;;;13.47;63.14;101306.80;1648651;87;21039;-67
2023/09/08 02:44:52;;;;;;;9.53;4.05;;;;;;;13.45;63.28;101304.77;1648711;87;21071;-67
2023/09/08 02:47:21;;;;;;;10.68;5.37;;;;;;;13.43;63.38;101306.86;1648674;87;21042;-66
2023/09/08 02:49:51;;;;;;;10.08;5.55;;;;;;;13.41;63.51;101303.45;1648879;87;21063;-66
2023/09/08 02:52:20;;;;;;;9.53;5.70;;;;;;;13.38;63.60;101298.33;1648852;87;21047;-67
2023/09/08 02:54:50;;;;;;;11.80;6.10;;;;;;;13.33;63.74;101303.56;1648794;86;21031;-67
2023/09/08 02:57:20;;;;;;;9.53;6.17;;;;;;;13.30;63.90;101306.18;1648686;87;21040;-67
2023/09/08 02:59:56;;;;;;;17.45;9.50;;;;;;;13.28;63.90;101308.27;1648673;86;21075;-67
2023/09/08 03:02:26;;;;;;;19.12;10.50;;;;;;;13.25;64.03;101302.30;1648835;87;21032;-68
2023/09/08 03:04:57;;;;;;;18.50;13.28;;;;;;;13.24;64.10;101304.73;1622468;87;21043;-67
2023/09/08 03:07:27;;;;;;;21.93;16.90;;;;;;;13.24;64.21;101301.97;1648695;87;21066;-67
2023/09/08 03:09:56;;;;;;;25.00;17.70;;;;;;;13.22;64.31;101299.41;1648827;86;21075;-67
2023/09/08 03:12:25;;;;;;;23.57;16.65;;;;;;;13.19;64.40;101300.33;1655047;86;21067;-68
2023/09/08 03:14:55;;;;;;;23.22;17.30;;;;;;;13.16;64.49;101302.05;1656140;87;21051;-67
2023/09/08 03:17:24;;;;;;;20.50;16.17;;;;;;;13.12;64.63;101294.70;1635507;87;21530;-67
2023/09/08 03:19:54;;;;;;;18.23;13.50;;;;;;;13.12;64.71;101300.73;1656199;86;21098;-67
2023/09/08 03:22:24;;;;;;;16.60;10.65;;;;;;;13.15;64.71;101291.56;1656350;87;21071;-67
2023/09/08 03:24:54;;;;;;;14.23;9.10;;;;;;;13.16;64.69;101293.80;1655986;86;21073;-69
2023/09/08 03:27:24;;;;;;;16.97;9.68;;;;;;;13.20;64.66;101298.75;1656264;85;21079;-67
2023/09/08 03:29:56;;;;;;;16.77;11.78;;;;;;;13.18;64.72;101304.13;1656328;87;21039;-67
2023/09/08 03:32:28;;;;;;;18.42;12.55;;;;;;;13.14;64.88;101302.77;1656363;86;21115;-67
2023/09/08 03:34:58;;;;;;;18.70;12.50;;;;;;;13.11;64.99;101308.66;1656015;86;21094;-68
2023/09/08 03:37:27;;;;;;;17.65;11.08;;;;;;;13.07;65.17;101308.19;1656025;87;21098;-67
2023/09/08 03:39:56;;;;;;;15.28;10.13;;;;;;;13.06;65.30;101309.75;1656047;85;21099;-68
2023/09/08 03:42:26;;;;;;;13.48;8.63;;;;;;;13.03;65.45;101307.39;1656047;87;21050;-68
2023/09/08 03:44:57;;;;;;;17.62;8.35;;;;;;;13.01;65.59;101310.33;1656010;87;21502;-68
2023/09/08 03:47:27;;;;;;;15.15;8.50;;;;;;;12.98;65.65;101305.17;1656060;85;21042;-67
2023/09/08 03:49:57;;;;;;;15.72;8.65;;;;;;;13.01;65.73;101303.45;1656041;87;21051;-67
2023/09/08 03:52:26;;;;;;;16.00;9.80;;;;;;;13.01;65.82;101301.55;1656041;87;21277;-67
2023/09/08 03:54:55;;;;;;;15.50;10.10;;;;;;;13.03;65.94;101290.87;1657519;86;21108;-67
2023/09/08 03:57:24;;;;;;;16.23;9.28;;;;;;;13.05;66.04;101291.54;1656036;87;21031;-66
2023/09/08 03:59:53;;;;;;;20.70;10.70;;;;;;;13.05;66.09;101295.14;1656245;85;21063;-67
2023/09/08 04:02:23;;;;;;;19.67;12.15;;;;;;;13.09;66.13;101292.86;1635320;87;21110;-67
2023/09/08 04:04:52;;;;;;;25.62;14.13;;;;;;;13.15;66.04;101287.44;1655977;87;21490;-73
2023/09/08 04:07:21;;;;;;;18.90;12.75;;;;;;;13.20;65.88;101289.64;1534564;92;21304;-67
2023/09/08 04:09:50;;;;;;;23.77;16.17;;;;;;;13.22;65.83;101291.68;1577599;89;21073;-67
2023/09/08 04:12:19;;;;;;;20.08;13.85;;;;;;;13.24;65.83;101286.83;1570451;89;21107;-67
2023/09/08 04:14:49;;;;;;;21.27;13.32;;;;;;;13.28;65.81;101297.78;1580295;89;21500;-67
2023/09/08 04:17:19;;;;;;;17.17;12.47;;;;;;;13.27;65.81;101291.95;1547305;93;21183;-68
2023/09/08 04:19:48;;;;;;;23.90;12.33;;;;;;;13.25;65.91;101296.27;1547126;93;21132;-67
2023/09/08 04:22:16;;;;;;;21.00;12.65;;;;;;;13.25;66.06;101300.92;1547128;91;21107;-67
2023/09/08 04:24:46;;;;;;;17.70;11.97;;;;;;;13.25;66.14;101303.16;1569785;86;21035;-67
2023/09/08 04:27:15;;;;;;;19.52;11.80;;;;;;;13.28;66.17;101297.78;1569621;90;21519;-67
2023/09/08 04:29:45;;;;;;;21.33;11.97;;;;;;;13.36;66.13;101295.44;1569606;91;21083;-68
2023/09/08 04:32:14;;;;;;;24.25;13.48;;;;;;;13.44;66.05;101300.83;1569502;91;21082;-67
2023/09/08 04:34:44;;;;;;;18.07;10.58;;;;;;;13.51;66.01;101300.38;1569577;91;21522;-68
2023/09/08 04:37:15;;;;;;;15.70;10.25;;;;;;;13.57;65.94;101293.56;1569445;91;21055;-67
2023/09/08 04:39:45;;;;;;;16.87;9.70;;;;;;;13.64;65.75;101297.23;1550079;91;21135;-67
2023/09/08 04:42:14;;;;;;;19.40;9.90;;;;;;;13.73;65.62;101298.52;1576571;91;21154;-68
2023/09/08 04:44:43;;;;;;;21.37;10.50;;;;;;;13.81;65.37;101301.14;1599801;85;21131;-67
2023/09/08 04:47:15;;;;;;;25.15;10.00;;;;;;;13.89;65.01;101295.50;1687103;85;21130;-68
2023/09/08 04:49:45;;;;;;;19.67;8.78;;;;;;;13.99;64.64;101298.77;1686965;85;21118;-67
2023/09/08 04:52:14;;;;;;;30.72;8.75;;;;;;;14.07;64.24;101293.12;1680614;85;21023;-66
2023/09/08 04:54:43;;;;;;;43.35;8.60;;;;;;;14.18;63.85;101294.48;1680684;85;21483;-67
2023/09/08 04:57:13;;;;;;;42.05;7.12;;;;;;;14.28;63.40;101294.98;1680593;85;21071;-68
2023/09/08 04:59:44;;;;;;;23.52;6.00;;;;;;;14.37;62.79;101285.55;1679028;85;21075;-68
2023/09/08 05:02:16;;;;;;;18.40;5.40;;;;;;;14.46;61.91;101289.88;1680640;85;21301;-67
2023/09/08 05:04:45;;;;;;;14.33;5.33;;;;;;;14.57;61.37;101287.09;1680316;85;21019;-67
2023/09/08 05:07:15;;;;;;;16.73;4.97;;;;;;;14.67;60.71;101287.58;1680481;85;21042;-67
2023/09/08 05:09:45;;;;;;;17.02;5.20;;;;;;;14.76;59.97;101287.73;1680369;85;21479;-68
2023/09/08 05:12:14;;;;;;;9.23;3.70;;;;;;;14.86;59.55;101285.45;1664306;85;21035;-67
2023/09/08 05:14:43;;;;;;;9.20;4.58;;;;;;;14.95;58.80;101287.52;1648788;86;21501;-67
2023/09/08 05:17:15;;;;;;;11.18;3.98;;;;;;;15.06;58.05;101291.63;1648622;87;21451;-68
2023/09/08 05:19:43;;;;;;;11.20;4.05;;;;;;;15.15;57.52;101287.11;1648792;86;21059;-68
2023/09/08 05:22:13;;;;;;;11.00;4.05;;;;;;;15.23;57.20;101282.78;1648622;87;21060;-68
2023/09/08 05:24:42;;;;;;;13.53;4.67;;;;;;;15.32;56.93;101286.75;1648816;87;21043;-67
2023/09/08 05:27:13;;;;;;;11.93;4.10;;;;;;;15.40;56.58;101285.17;1622611;87;21031;-67
2023/09/08 05:29:43;;;;;;;11.18;4.60;;;;;;;15.47;56.19;101273.62;1648761;86;21043;-68
2023/09/08 05:32:12;;;;;;;9.45;3.60;;;;;;;15.54;55.84;101271.72;1648805;87;21039;-66
2023/09/08 05:34:41;;;;;;;8.80;3.42;;;;;;;15.63;55.55;101271.06;1648742;87;21055;-67
2023/09/08 05:37:11;;;;;;;9.05;3.45;;;;;;;15.69;55.26;101260.55;1648749;86;21482;-68
2023/09/08 05:39:42;;;;;;;10.28;3.08;;;;;;;15.76;54.94;101255.35;1623274;87;21475;-67
2023/09/08 05:42:11;;;;;;;7.67;3.60;;;;;;;15.84;54.66;101259.83;1648560;87;21023;-68
2023/09/08 05:44:42;;;;;;;11.97;3.02;;;;;;;15.90;54.27;101256.21;1648764;86;21035;-69
2023/09/08 05:47:14;;;;;;;6.83;2.60;;;;;;;15.96;53.89;101263.66;1622630;87;21129;-69
2023/09/08 05:49:44;;;;;;;14.15;3.30;;;;;;;16.02;53.36;101264.72;1648578;87;21071;-68
2023/09/08 05:52:14;;;;;;;10.88;3.30;;;;;;;16.07;53.11;101265.78;1648880;87;21032;-68
2023/09/08 05:54:45;;;;;;;9.10;3.30;;;;;;;16.13;52.99;101262.16;1648477;86;21521;-68
2023/09/08 05:57:15;;;;;;;7.17;3.10;;;;;;;16.21;52.82;101261.63;1648803;87;21075;-68
2023/09/08 05:59:44;;;;;;;4.90;2.40;;;;;;;16.27;52.45;101258.89;1648543;87;21037;-68
2023/09/08 06:02:13;;;;;;;8.03;3.20;;;;;;;16.34;51.99;101261.12;1644387;87;21083;-70
2023/09/08 06:04:44;;;;;;;12.90;3.20;;;;;;;16.39;51.79;101254.94;1648595;87;21171;-69
2023/09/08 06:07:15;;;;;;;9.00;2.67;;;;;;;16.45;51.72;101252.16;1648706;86;21047;-69
2023/09/08 06:09:46;;;;;;;10.85;3.10;;;;;;;16.52;51.71;101247.15;1648638;87;21049;-70
2023/09/08 06:12:15;;;;;;;8.20;2.83;;;;;;;16.59;51.53;101247.98;1648566;86;21071;-68
2023/09/08 06:14:44;;;;;;;9.08;2.55;;;;;;;16.65;51.24;101249.88;1648712;87;21075;-68
2023/09/08 06:17:14;;;;;;;5.80;2.00;;;;;;;16.70;50.91;101248.73;1648760;87;21055;-68
2023/09/08 06:19:44;;;;;;;7.08;2.52;;;;;;;16.73;50.66;101246.38;1648621;87;21063;-67
2023/09/08 06:22:14;;;;;;;6.03;2.35;;;;;;;16.79;50.62;101246.89;1622475;87;21083;-68
2023/09/08 06:24:44;;;;;;;8.83;3.50;;;;;;;16.86;50.60;101254.32;1648727;87;21087;-68
2023/09/08 06:27:15;;;;;;;13.55;3.27;;;;;;;16.92;50.60;101248.80;1648646;87;21042;-68
2023/09/08 06:29:46;;;;;;;11.73;3.27;;;;;;;16.98;50.32;101242.91;1623601;87;21068;-68
2023/09/08 06:32:16;;;;;;;9.95;3.05;;;;;;;17.03;50.18;101246.73;1648736;87;21553;-70
2023/09/08 06:34:46;;;;;;;9.45;3.10;;;;;;;17.09;50.09;101245.84;1648975;87;21078;-68
2023/09/08 06:37:16;;;;;;;8.50;3.30;;;;;;;17.16;49.85;101236.66;1649058;87;21071;-69
2023/09/08 06:39:48;;;;;;;7.33;2.52;;;;;;;17.21;49.60;101240.46;1622505;87;21083;-68
2023/09/08 06:42:25;;;;;;;19.00;7.20;;;;;;;17.26;49.53;101244.80;1648689;86;21024;-69
2023/09/08 06:44:58;;;;;;;8.73;3.60;;;;;;;17.30;49.49;101239.13;1648700;87;21488;-69
2023/09/08 06:47:26;;;;;;;6.05;2.77;;;;;;;17.34;49.66;101233.46;1648768;86;21076;-70
2023/09/08 06:49:56;;;;;;;9.48;2.58;;;;;;;17.37;49.43;101231.63;1648751;87;21047;-70
2023/09/08 06:52:25;;;;;;;8.95;3.02;;;;;;;17.43;49.53;101234.05;1648737;87;21086;-69
2023/09/08 06:54:56;;;;;;;7.62;2.20;;;;;;;17.48;49.44;101231.99;1648590;86;21046;-68
2023/09/08 06:57:25;;;;;;;5.50;2.17;;;;;;;17.54;49.07;101233.87;1622597;87;21169;-70
2023/09/08 06:59:54;;;;;;;5.33;2.12;;;;;;;17.59;48.71;101225.23;1622584;87;21095;-68
2023/09/08 07:02:25;;;;;;;3.55;2.30;;;;;;;17.65;48.26;101226.27;1622710;87;21091;-70
2023/09/08 07:04:55;;;;;;;7.30;2.60;;;;;;;17.70;48.01;101224.55;1648884;87;21039;-69
2023/09/08 07:07:25;;;;;;;13.48;2.85;;;;;;;17.77;47.87;101227.27;1648881;87;21517;-69
2023/09/08 07:09:55;;;;;;;6.78;2.02;;;;;;;17.82;47.79;101221.89;1648681;87;21126;-70
2023/09/08 07:12:25;;;;;;;5.55;2.02;;;;;;;17.85;47.66;101221.98;1648843;85;21083;-66
2023/09/08 07:14:57;;;;;;;7.22;2.00;;;;;;;17.88;47.68;101218.22;1648580;86;21044;-68
2023/09/08 07:17:27;;;;;;;5.80;2.10;;;;;;;17.91;47.78;101220.54;1648817;87;21087;-67
2023/09/08 07:19:57;;;;;;;5.97;1.92;;;;;;;17.94;47.77;101227.02;1648870;87;21482;-67
2023/09/08 07:22:27;;;;;;;6.20;1.75;;;;;;;17.97;47.36;101221.56;1648643;87;21108;-68
2023/09/08 07:24:56;;;;;;;2.72;1.60;;;;;;;18.02;46.94;101225.35;1648647;87;21036;-67
2023/09/08 07:27:27;;;;;;;3.15;1.50;;;;;;;18.06;46.45;101218.27;1648800;87;21051;-68
2023/09/08 07:29:56;;;;;;;3.15;1.60;;;;;;;18.11;46.31;101209.81;1648645;87;21103;-68
2023/09/08 07:32:25;;;;;;;2.72;1.35;;;;;;;18.17;46.49;101223.61;1648625;87;21075;-69
2023/09/08 07:34:54;;;;;;;3.90;1.65;;;;;;;18.22;46.16;101220.19;1648774;87;21451;-67
2023/09/08 07:37:25;;;;;;;4.28;1.57;;;;;;;18.24;45.89;101217.50;1648787;87;21052;-68
2023/09/08 07:39:53;;;;;;;2.83;1.50;;;;;;;18.25;45.69;101215.57;1648945;87;21039;-68
2023/09/08 07:42:23;;;;;;;2.62;1.60;;;;;;;18.29;45.67;101207.10;1648739;87;21078;-68
2023/09/08 07:44:54;;;;;;;4.08;1.72;;;;;;;18.32;45.69;101211.66;1648829;85;21063;-68
2023/09/08 07:47:23;;;;;;;7.17;1.95;;;;;;;18.38;45.51;101208.50;1644482;86;21082;-68
2023/09/08 07:49:53;;;;;;;4.30;1.82;;;;;;;18.48;45.53;101210.20;1641996;85;21055;-71
2023/09/08 07:52:24;;;;;;;3.75;1.77;;;;;;;18.76;45.21;101214.41;1660131;84;21066;-69
2023/09/08 07:54:53;;;;;;;5.62;2.15;;;;;;;19.23;44.19;101192.77;1654329;86;21056;-71
2023/09/08 07:57:25;;;;;;;4.12;1.95;;;;;;;19.68;43.75;101202.09;1650523;85;21061;-74
2023/09/08 07:59:55;;;;;;;10.28;2.20;;;;;;;20.17;42.56;101193.05;1650337;85;21096;-68
2023/09/08 08:02:24;;;;;;;3.62;1.75;;;;;;;20.69;41.71;101197.32;1655569;87;21113;-69
2023/09/08 08:04:53;;;;;;;3.70;1.47;;;;;;;21.17;40.63;101183.88;1655514;87;21500;-69
2023/09/08 08:07:22;;;;;;;6.37;1.80;;;;;;;21.68;39.81;101176.52;1654674;87;21044;-70
2023/09/08 08:09:53;;;;;;;5.47;2.10;;;;;;;22.09;38.99;101178.06;1630378;87;21095;-69
2023/09/08 08:12:22;;;;;;;3.47;1.70;;;;;;;22.50;38.29;101176.45;1655555;86;21753;-69
2023/09/08 08:14:54;;;;;;;3.98;2.22;;;;;;;22.91;38.34;101179.30;1678012;85;21175;-69
2023/09/08 08:17:23;;;;;;;9.85;4.92;;;;;;;23.32;37.31;101172.21;1678024;85;21497;-69
2023/09/08 08:19:52;;;;;;;4.45;2.40;;;;;;;23.69;36.58;101175.16;1678411;85;21071;-74
2023/09/08 08:22:24;;;;;;;9.78;4.58;;;;;;;23.89;35.89;101161.89;1677976;85;21067;-73
2023/09/08 08:24:54;;;;;;;10.40;4.15;;;;;;;24.13;35.16;101156.22;1679248;85;21122;-71
2023/09/08 08:27:23;;;;;;;7.03;2.30;;;;;;;24.39;35.39;101152.22;1701207;84;21075;-73
2023/09/08 08:29:53;;;;;;;3.37;1.80;;;;;;;24.62;34.64;101160.19;1708572;84;21019;-74
2023/09/08 08:32:22;;;;;;;3.65;1.82;;;;;;;24.79;33.90;101148.24;1754587;80;21559;-74
2023/09/08 08:34:51;;;;;;;5.17;1.85;;;;;;;24.91;33.46;101148.85;1754579;82;21038;-74
2023/09/08 08:37:19;;;;;;;7.40;1.70;;;;;;;24.94;33.33;101146.89;1754506;80;21011;-72
2023/09/08 08:39:49;;;;;;;3.00;1.47;;;;;;;25.02;33.21;101141.91;1754872;82;21054;-75
2023/09/08 08:42:22;;;;;;;6.33;2.85;;;;;;;25.14;32.93;101143.34;1754793;82;21114;-72
2023/09/08 08:44:49;;;;;;;3.00;1.80;;;;;;;25.21;33.09;101143.08;1754503;80;21074;-71
2023/09/08 08:47:19;;;;;;;7.33;1.37;;;;;;;25.30;32.90;101141.41;1754686;82;21031;-72
2023/09/08 08:49:49;;;;;;;2.70;1.62;;;;;;;25.37;32.95;101135.00;1754543;82;21074;-71
2023/09/08 08:52:18;;;;;;;3.20;1.65;;;;;;;25.31;32.63;101132.44;1754800;81;21505;-74
2023/09/08 08:54:47;;;;;;;3.60;1.40;;;;;;;25.24;32.66;101132.70;1754660;82;21159;-73
2023/09/08 08:57:16;;;;;;;4.70;1.30;;;;;;;25.09;32.92;101133.52;1751326;82;21528;-72
2023/09/08 08:59:48;;;;;;;4.42;1.37;;;;;;;24.84;33.20;101125.84;1678884;85;21556;-71
2023/09/08 09:02:18;;;;;;;4.95;1.42;;;;;;;24.68;33.26;101126.02;1723151;83;21023;-71
2023/09/08 09:04:47;;;;;;;3.50;1.55;;;;;;;24.41;33.62;101123.38;1723072;83;21505;-71
2023/09/08 09:07:16;;;;;;;5.47;1.55;;;;;;;24.22;34.00;101122.95;1695251;83;21035;-70
2023/09/08 09:09:45;;;;;;;4.33;1.62;;;;;;;24.08;34.37;101133.79;1678878;85;21035;-71
2023/09/08 09:12:14;;;;;;;7.20;2.35;;;;;;;24.02;34.33;101126.44;1723271;83;21082;-73
2023/09/08 09:14:49;;;;;;;3.65;1.55;;;;;;;23.92;34.41;101126.36;1655891;85;21090;-71
2023/09/08 09:17:18;;;;;;;2.65;1.30;;;;;;;23.77;34.71;101129.05;1639346;87;21074;-71
2023/09/08 09:19:47;;;;;;;4.70;1.35;;;;;;;23.65;34.94;101127.83;1656110;85;21091;-72
2023/09/08 09:22:21;;;;;;;6.40;1.75;;;;;;;23.48;35.02;101118.70;1639357;87;21069;-70
2023/09/08 09:24:50;;;;;;;3.85;1.50;;;;;;;23.31;35.44;101116.83;1655910;85;21474;-72
2023/09/08 09:27:19;;;;;;;5.28;1.30;;;;;;;23.18;35.49;101113.62;1639194;87;21466;-71
2023/09/08 09:29:50;;;;;;;4.90;1.30;;;;;;;23.00;35.78;101111.48;1655701;87;21544;-70
2023/09/08 09:32:26;;;;;;;2.65;1.20;;;;;;;22.94;35.92;101114.48;1639453;87;21102;-72
2023/09/08 09:34:57;;;;;;;3.75;1.50;;;;;;;22.85;36.23;101107.67;1655939;87;21070;-71
2023/09/08 09:37:29;;;;;;;5.17;1.60;;;;;;;22.83;36.30;101109.34;1613051;87;21067;-72
2023/09/08 09:40:00;;;;;;;2.35;1.30;;;;;;;22.75;36.36;101101.34;1656052;85;21478;-73
2023/09/08 09:42:29;;;;;;;2.27;1.45;;;;;;;22.67;36.71;101095.67;1639406;87;21055;-70
2023/09/08 09:45:00;;;;;;;5.12;1.40;;;;;;;22.58;36.99;101092.20;1655915;87;21119;-71
2023/09/08 09:47:32;;;;;;;3.67;1.80;;;;;;;22.48;36.71;101078.95;1613091;87;21105;-72
2023/09/08 09:50:02;;;;;;;2.87;1.67;;;;;;;22.38;37.16;101083.86;1629758;87;21103;-73
2023/09/08 09:52:31;;;;;;;4.58;1.60;;;;;;;22.38;37.22;101082.46;1639450;87;21157;-73
2023/09/08 09:55:01;;;;;;;4.37;1.30;;;;;;;22.38;37.20;101078.27;1655944;85;21110;-72
2023/09/08 09:57:30;;;;;;;5.65;1.75;;;;;;;22.39;37.38;101077.17;1642138;87;21118;-71
2023/09/08 09:59:59;;;;;;;4.37;1.72;;;;;;;22.39;37.09;101070.74;1654574;85;21506;-71
2023/09/08 10:02:30;;;;;;;6.00;1.65;;;;;;;22.28;37.19;101069.77;1654694;87;21493;-72
2023/09/08 10:05:04;;;;;;;5.10;1.52;;;;;;;22.25;37.42;101063.86;1654555;87;21576;-71
2023/09/08 10:07:34;;;;;;;5.15;2.00;;;;;;;22.30;37.44;101055.55;1632968;87;21058;-70
2023/09/08 10:10:05;;;;;;;4.53;1.60;;;;;;;22.29;37.21;101051.91;1654745;87;21059;-70
2023/09/08 10:12:35;;;;;;;4.85;1.67;;;;;;;22.35;37.44;101050.02;1632268;87;21151;-71
2023/09/08 10:15:05;;;;;;;9.53;1.98;;;;;;;22.36;37.45;101045.58;1691742;83;21124;-72
2023/09/08 10:17:34;;;;;;;3.98;1.60;;;;;;;22.39;36.92;101051.20;1691542;85;21099;-69
2023/09/08 10:20:11;;;;;;;5.95;1.57;;;;;;;22.42;35.99;101050.13;1691762;83;21523;-70
2023/09/08 10:22:42;;;;;;;5.30;2.15;;;;;;;22.46;35.28;101047.09;1691409;83;21080;-70
2023/09/08 10:25:13;;;;;;;4.55;1.90;;;;;;;22.48;35.14;101050.18;1691739;83;21075;-70
2023/09/08 10:27:42;;;;;;;5.78;1.60;;;;;;;22.51;35.87;101048.27;1691594;83;21499;-71
2023/09/08 10:30:12;;;;;;;3.02;1.27;;;;;;;22.50;36.34;101042.39;1691877;85;21111;-71
2023/09/08 10:32:42;;;;;;;7.20;2.08;;;;;;;22.47;36.50;101035.38;1691923;85;21060;-74
2023/09/08 10:35:12;;;;;;;4.55;1.50;;;;;;;22.37;37.07;101036.09;1691617;85;21093;-73
2023/09/08 10:37:41;;;;;;;4.50;1.70;;;;;;;22.36;36.77;101032.16;1691865;85;21064;-72
2023/09/08 10:40:24;;;;;;;6.28;1.70;;;;;;;22.34;36.40;101020.41;1691620;84;21068;-71
2023/09/08 10:43:09;;;;;;;3.75;1.40;;;;;;;22.29;34.84;101023.98;1691558;85;21500;-71
2023/09/08 10:45:39;;;;;;;3.05;1.80;;;;;;;22.32;34.23;101019.28;1691951;85;21111;-69
2023/09/08 10:48:08;;;;;;;4.42;1.55;;;;;;;22.33;33.73;101001.97;1618772;86;21098;-70
2023/09/08 10:50:42;;;;;;;3.00;1.30;;;;;;;22.32;33.80;101008.66;1692952;85;21063;-70
2023/09/08 10:53:16;;;;;;;4.00;1.55;;;;;;;22.35;33.42;101002.55;1693611;83;21050;-70
2023/09/08 10:55:49;;;;;;;4.42;1.20;;;;;;;22.41;33.52;101009.89;1693357;84;21096;-68
2023/09/08 10:58:38;;;;;;;4.87;2.52;;;;;;;22.50;33.39;101010.27;1687292;85;21527;-70
2023/09/08 11:01:07;;;;;;;3.45;1.47;;;;;;;22.54;33.25;101000.26;1666134;83;21171;-70
2023/09/08 11:03:47;;;;;;;4.37;1.40;;;;;;;22.56;33.16;101000.28;1691983;85;21115;-69
2023/09/08 11:06:21;;;;;;;2.85;1.60;;;;;;;22.59;33.59;100991.93;1691786;85;21072;-68
2023/09/08 11:08:55;;;;;;;2.27;1.52;;;;;;;22.62;33.11;100988.61;1691878;83;21332;-67
2023/09/08 11:11:25;;;;;;;3.62;1.35;;;;;;;22.63;33.10;100976.33;1691613;83;21104;-69
2023/09/08 11:13:53;;;;;;;4.67;1.60;;;;;;;22.62;33.00;100972.70;1692961;85;21080;-75
2023/09/08 11:16:29;;;;;;;5.80;1.60;;;;;;;22.63;32.89;100977.73;1694865;83;21095;-72
2023/09/08 11:18:54;;;;;;;1.92;1.30;;;;;;;22.67;33.20;100973.30;1694474;83;21064;-72
2023/09/08 11:21:22;;;;;;;5.78;1.90;;;;;;;22.72;33.28;100970.00;1694876;85;21091;-73
2023/09/08 11:23:51;;;;;;;3.77;1.42;;;;;;;22.73;33.07;100967.50;1694614;83;21107;-73
2023/09/08 11:26:21;;;;;;;6.72;1.62;;;;;;;22.74;32.70;100962.75;1694468;83;21080;-73
2023/09/08 11:28:50;;;;;;;5.75;1.75;;;;;;;22.71;32.80;100956.30;1670245;85;21112;-72
2023/09/08 11:31:19;;;;;;;5.85;1.85;;;;;;;22.74;33.05;100948.23;1694744;83;21111;-73
2023/09/08 11:33:49;;;;;;;5.17;3.33;;;;;;;22.82;33.06;100946.13;1694943;85;21112;-72
2023/09/08 11:36:19;;;;;;;5.62;1.80;;;;;;;22.88;32.67;100939.47;1694762;84;21064;-75